createdAt,value
2017-06-06T00:01:01.032Z,88.30
2017-06-06T00:03:33.743Z,88.60
2017-06-06T00:06:03.632Z,88.60
2017-06-06T00:08:33.383Z,88.10
2017-06-06T00:11:05.867Z,88.10
2017-06-06T00:13:38.364Z,88.30
2017-06-06T00:16:11.884Z,88.20
2017-06-06T00:18:45.255Z,89.20
2017-06-06T00:21:18.287Z,88.90
2017-06-06T00:23:51.172Z,89.10
2017-06-06T00:26:24.005Z,89.70
2017-06-06T00:28:56.851Z,89.80
2017-06-06T00:31:29.919Z,89.80
2017-06-06T00:34:02.947Z,90.30
2017-06-06T00:36:35.915Z,90.50
2017-06-06T00:39:08.611Z,90.40
2017-06-06T00:41:40.858Z,90.30
2017-06-06T00:44:13.751Z,90.50
2017-06-06T00:46:46.664Z,90.60
2017-06-06T00:49:19.660Z,90.90
2017-06-06T00:51:52.650Z,90.60
2017-06-06T00:54:25.644Z,90.60
2017-06-06T00:56:58.683Z,90.60
2017-06-06T00:59:31.482Z,90.60
2017-06-06T01:02:04.156Z,90.00
2017-06-06T01:04:37.015Z,90.10
2017-06-06T01:07:10.047Z,89.90
2017-06-06T01:09:40.119Z,89.80
2017-06-06T01:12:13.264Z,90.00
2017-06-06T01:14:45.984Z,90.10
2017-06-06T01:17:18.523Z,89.90
2017-06-06T01:19:51.344Z,90.20
2017-06-06T01:22:24.123Z,90.00
2017-06-06T01:24:57.227Z,90.30
2017-06-06T01:27:30.097Z,90.00
2017-06-06T01:30:08.458Z,90.00
2017-06-06T01:32:50.089Z,90.50
2017-06-06T01:35:23.219Z,90.40
2017-06-06T01:37:55.968Z,90.30
2017-06-06T01:40:28.872Z,90.30
2017-06-06T01:43:01.535Z,90.50
2017-06-06T01:45:34.631Z,90.90
2017-06-06T01:48:06.983Z,90.90
2017-06-06T01:50:40.028Z,91.20
2017-06-06T01:53:12.903Z,91.10
2017-06-06T01:55:45.660Z,91.40
2017-06-06T01:58:17.898Z,91.40
2017-06-06T02:00:50.969Z,91.30
2017-06-06T02:03:23.747Z,91.10
2017-06-06T02:05:56.595Z,90.90
2017-06-06T02:08:29.545Z,90.50
2017-06-06T02:11:02.284Z,90.50
2017-06-06T02:13:35.139Z,90.30
2017-06-06T02:16:08.059Z,90.50
2017-06-06T02:18:42.787Z,90.70
2017-06-06T02:21:15.595Z,90.60
2017-06-06T02:23:48.216Z,91.10
2017-06-06T02:26:20.803Z,90.90
2017-06-06T02:28:53.599Z,91.20
2017-06-06T02:31:26.259Z,90.80
2017-06-06T02:34:01.965Z,90.90
2017-06-06T02:36:34.732Z,90.90
2017-06-06T02:39:07.543Z,91.30
2017-06-06T02:41:40.691Z,91.50
2017-06-06T02:44:13.656Z,91.60
2017-06-06T02:46:46.769Z,91.60
2017-06-06T02:49:19.868Z,91.10
2017-06-06T02:51:52.951Z,90.80
2017-06-06T02:54:25.207Z,90.80
2017-06-06T02:56:58.108Z,90.90
2017-06-06T02:59:31.044Z,91.10
2017-06-06T03:02:03.891Z,91.30
2017-06-06T03:04:36.759Z,91.20
2017-06-06T03:07:09.757Z,91.30
2017-06-06T03:09:42.611Z,91.40
2017-06-06T03:12:15.675Z,91.40
2017-06-06T03:14:48.593Z,91.50
2017-06-06T03:17:21.540Z,91.50
2017-06-06T03:19:54.696Z,91.50
2017-06-06T03:22:27.639Z,91.40
2017-06-06T03:25:00.479Z,91.50
2017-06-06T03:27:33.372Z,91.50
2017-06-06T03:30:06.511Z,91.50
2017-06-06T03:32:40.147Z,91.90
2017-06-06T03:35:13.297Z,92.40
2017-06-06T03:37:46.156Z,91.80
2017-06-06T03:40:18.883Z,91.80
2017-06-06T03:42:51.703Z,91.90
2017-06-06T03:45:21.579Z,91.90
2017-06-06T03:47:54.283Z,92.20
2017-06-06T03:50:27.068Z,92.00
2017-06-06T03:52:59.943Z,92.00
2017-06-06T03:55:32.971Z,92.30
2017-06-06T03:58:05.867Z,92.10
2017-06-06T04:00:38.635Z,91.90
2017-06-06T04:03:11.455Z,92.00
2017-06-06T04:05:44.401Z,92.10
2017-06-06T04:08:17.387Z,92.00
2017-06-06T04:10:50.509Z,91.80
2017-06-06T04:13:23.079Z,91.80
2017-06-06T04:15:55.899Z,92.00
2017-06-06T04:18:28.803Z,92.20
2017-06-06T04:21:01.768Z,92.30
2017-06-06T04:23:34.025Z,92.20
2017-06-06T04:26:06.956Z,92.20
2017-06-06T04:28:40.272Z,92.30
2017-06-06T04:31:13.029Z,92.40
2017-06-06T04:33:45.707Z,92.10
2017-06-06T04:36:18.764Z,92.40
2017-06-06T04:38:51.556Z,92.60
2017-06-06T04:41:24.440Z,92.60
2017-06-06T04:43:57.375Z,92.60
2017-06-06T04:46:30.042Z,92.70
2017-06-06T04:49:05.203Z,92.20
2017-06-06T04:51:37.550Z,92.30
2017-06-06T04:54:10.341Z,92.40
2017-06-06T04:56:43.167Z,92.70
2017-06-06T04:59:15.919Z,92.40
2017-06-06T05:01:48.855Z,92.60
2017-06-06T05:04:22.011Z,92.80
2017-06-06T05:06:55.160Z,92.50
2017-06-06T05:09:28.223Z,92.50
2017-06-06T05:12:01.231Z,92.60
2017-06-06T05:14:34.159Z,92.70
2017-06-06T05:17:06.999Z,92.80
2017-06-06T05:19:40.495Z,93.00
2017-06-06T05:22:12.760Z,93.20
2017-06-06T05:24:45.375Z,93.30
2017-06-06T05:27:18.484Z,93.40
2017-06-06T05:29:51.311Z,93.00
2017-06-06T05:32:24.355Z,92.80
2017-06-06T05:34:56.551Z,92.50
2017-06-06T05:37:29.379Z,91.70
2017-06-06T05:40:02.377Z,91.20
2017-06-06T05:42:35.340Z,91.20
2017-06-06T05:45:08.391Z,90.50
2017-06-06T05:47:41.287Z,90.60
2017-06-06T05:50:14.307Z,90.40
2017-06-06T05:52:47.167Z,90.00
2017-06-06T05:55:20.163Z,88.90
2017-06-06T05:58:03.788Z,88.00
2017-06-06T06:00:36.893Z,88.80
2017-06-06T06:03:10.562Z,88.40
2017-06-06T06:05:43.694Z,88.80
2017-06-06T06:08:16.634Z,88.80
2017-06-06T06:10:49.452Z,88.10
2017-06-06T06:13:22.507Z,87.60
2017-06-06T06:15:55.519Z,86.50
2017-06-06T06:18:28.411Z,86.30
2017-06-06T06:21:01.216Z,87.00
2017-06-06T06:23:34.348Z,83.20
2017-06-06T06:26:07.196Z,84.80
2017-06-06T06:28:40.071Z,84.40
2017-06-06T06:31:12.896Z,82.60
2017-06-06T06:33:45.686Z,81.50
2017-06-06T06:36:18.488Z,83.00
2017-06-06T06:38:51.545Z,82.00
2017-06-06T06:41:24.091Z,81.50
2017-06-06T06:43:57.147Z,80.90
2017-06-06T06:46:30.139Z,81.20
2017-06-06T06:49:03.304Z,82.30
2017-06-06T06:51:36.292Z,81.80
2017-06-06T06:54:09.232Z,81.10
2017-06-06T06:56:41.991Z,81.70
2017-06-06T06:59:14.611Z,80.70
2017-06-06T07:01:46.921Z,79.70
2017-06-06T07:04:20.039Z,79.70
2017-06-06T07:06:52.847Z,80.00
2017-06-06T07:09:25.391Z,81.30
2017-06-06T07:11:57.835Z,79.70
2017-06-06T07:14:30.395Z,79.80
2017-06-06T07:17:02.931Z,78.90
2017-06-06T07:19:35.475Z,80.20
2017-06-06T07:22:08.161Z,80.20
2017-06-06T07:24:41.019Z,80.40
2017-06-06T07:27:13.895Z,81.20
2017-06-06T07:29:46.957Z,79.10
2017-06-06T07:32:19.791Z,79.40
2017-06-06T07:34:52.591Z,79.20
2017-06-06T07:37:25.455Z,79.90
2017-06-06T07:39:58.178Z,79.10
2017-06-06T07:42:31.152Z,79.20
2017-06-06T07:45:04.211Z,79.80
2017-06-06T07:47:37.267Z,81.20
2017-06-06T07:50:10.608Z,80.40
2017-06-06T07:52:43.634Z,79.70
2017-06-06T07:55:16.615Z,80.30
2017-06-06T07:57:46.559Z,81.40
2017-06-06T08:00:19.320Z,80.80
2017-06-06T08:02:52.034Z,79.00
2017-06-06T08:05:25.075Z,78.80
2017-06-06T08:07:57.811Z,78.10
2017-06-06T08:10:30.836Z,76.90
2017-06-06T08:13:03.514Z,78.40
2017-06-06T08:15:36.223Z,77.00
2017-06-06T08:18:08.919Z,76.10
2017-06-06T08:20:41.495Z,77.00
2017-06-06T08:23:14.099Z,75.50
2017-06-06T08:25:46.703Z,76.20
2017-06-06T08:28:19.496Z,73.40
2017-06-06T08:30:52.067Z,74.10
2017-06-06T08:33:24.567Z,73.60
2017-06-06T08:35:57.323Z,71.90
2017-06-06T08:38:30.461Z,75.20
2017-06-06T08:41:03.311Z,75.70
2017-06-06T08:43:36.207Z,73.10
2017-06-06T08:46:08.968Z,77.20
2017-06-06T08:48:41.609Z,79.60
2017-06-06T08:51:14.608Z,79.20
2017-06-06T08:53:47.307Z,81.10
2017-06-06T08:56:20.051Z,82.20
2017-06-06T08:58:53.071Z,83.00
2017-06-06T09:01:25.948Z,80.40
2017-06-06T09:03:58.759Z,83.90
2017-06-06T09:06:31.667Z,83.80
2017-06-06T09:09:04.039Z,84.30
2017-06-06T09:11:36.308Z,86.10
2017-06-06T09:14:09.179Z,85.60
2017-06-06T09:16:42.034Z,88.00
2017-06-06T09:19:15.056Z,88.80
2017-06-06T09:21:47.963Z,89.70
2017-06-06T09:24:20.687Z,88.10
2017-06-06T09:26:53.423Z,89.60
2017-06-06T09:29:26.243Z,90.40
2017-06-06T09:31:59.316Z,90.60
2017-06-06T09:34:29.147Z,89.80
2017-06-06T09:37:01.876Z,90.40
2017-06-06T09:39:34.816Z,90.90
2017-06-06T09:42:07.352Z,90.60
2017-06-06T09:44:40.623Z,91.00
2017-06-06T09:47:13.748Z,90.70
2017-06-06T09:49:46.731Z,90.30
2017-06-06T09:52:18.979Z,90.40
2017-06-06T09:54:51.947Z,90.50
2017-06-06T09:57:24.998Z,90.70
2017-06-06T09:59:57.751Z,90.70
2017-06-06T10:02:30.871Z,88.90
2017-06-06T10:05:03.836Z,89.00
2017-06-06T10:07:36.906Z,88.40
2017-06-06T10:10:10.479Z,90.20
2017-06-06T10:12:42.699Z,87.80
2017-06-06T10:15:15.584Z,87.50
2017-06-06T10:17:48.501Z,86.00
2017-06-06T10:20:21.311Z,85.90
2017-06-06T10:22:54.219Z,84.60
2017-06-06T10:25:26.915Z,85.60
2017-06-06T10:27:59.739Z,84.70
2017-06-06T10:30:32.549Z,84.20
2017-06-06T10:33:05.503Z,83.40
2017-06-06T10:35:38.475Z,84.60
2017-06-06T10:38:11.407Z,82.90
2017-06-06T10:40:44.239Z,81.90
2017-06-06T10:43:16.703Z,82.20
2017-06-06T10:45:49.148Z,81.60
2017-06-06T10:48:22.085Z,77.80
2017-06-06T10:50:54.683Z,76.30
2017-06-06T10:53:27.243Z,74.60
2017-06-06T10:55:59.855Z,73.00
2017-06-06T10:58:32.303Z,73.70
2017-06-06T11:01:04.955Z,70.50
2017-06-06T11:03:38.003Z,71.20
2017-06-06T11:06:11.003Z,73.70
2017-06-06T11:08:44.028Z,70.10
2017-06-06T11:11:16.947Z,69.00
2017-06-06T11:13:49.618Z,71.20
2017-06-06T11:16:21.803Z,71.30
2017-06-06T11:18:54.551Z,70.10
2017-06-06T11:21:27.109Z,72.70
2017-06-06T11:24:00.171Z,72.50
2017-06-06T11:26:30.128Z,70.50
2017-06-06T11:29:02.929Z,72.00
2017-06-06T11:31:35.732Z,69.60
2017-06-06T11:34:08.567Z,70.80
2017-06-06T11:36:41.316Z,71.60
2017-06-06T11:39:14.375Z,71.10
2017-06-06T11:41:47.264Z,71.40
2017-06-06T11:44:20.319Z,65.90
2017-06-06T11:46:53.370Z,67.10
2017-06-06T11:49:26.199Z,67.50
2017-06-06T11:51:58.799Z,67.10
2017-06-06T11:54:31.484Z,68.70
2017-06-06T11:57:03.981Z,67.40
2017-06-06T11:59:37.128Z,63.60
2017-06-06T12:02:09.783Z,62.30
2017-06-06T12:04:42.783Z,58.20
2017-06-06T12:07:14.998Z,58.70
2017-06-06T12:09:47.539Z,58.50
2017-06-06T12:12:20.372Z,56.10
2017-06-06T12:14:53.195Z,57.10
2017-06-06T12:17:25.911Z,56.80
2017-06-06T12:19:58.699Z,57.00
2017-06-06T12:22:31.383Z,53.50
2017-06-06T12:25:04.519Z,51.40
2017-06-06T12:27:37.543Z,52.50
2017-06-06T12:30:10.767Z,53.50
2017-06-06T12:32:43.383Z,54.60
2017-06-06T12:35:17.139Z,53.70
2017-06-06T12:37:50.071Z,53.90
2017-06-06T12:40:23.104Z,51.80
2017-06-06T12:42:55.983Z,50.00
2017-06-06T12:45:28.876Z,42.70
2017-06-06T12:48:01.747Z,37.90
2017-06-06T12:50:34.390Z,30.90
2017-06-06T12:53:07.022Z,28.20
2017-06-06T12:55:39.632Z,29.50
2017-06-06T12:58:12.371Z,29.90
2017-06-06T13:00:45.128Z,28.80
2017-06-06T13:03:17.834Z,31.00
2017-06-06T13:05:50.691Z,32.90
2017-06-06T13:08:23.212Z,34.50
2017-06-06T13:10:55.879Z,35.40
2017-06-06T13:13:28.360Z,35.70
2017-06-06T13:16:01.115Z,32.00
2017-06-06T13:18:33.792Z,30.00
2017-06-06T13:21:06.591Z,29.10
2017-06-06T13:23:39.616Z,30.40
2017-06-06T13:26:12.367Z,31.50
2017-06-06T13:28:45.476Z,36.00
2017-06-06T13:31:18.529Z,33.50
2017-06-06T13:33:51.462Z,26.50
2017-06-06T13:36:24.225Z,25.40
2017-06-06T13:38:57.019Z,23.10
2017-06-06T13:41:30.027Z,24.10
2017-06-06T13:44:02.784Z,19.90
2017-06-06T13:46:35.907Z,20.70
2017-06-06T13:49:08.579Z,21.70
2017-06-06T13:51:41.523Z,23.20
2017-06-06T13:54:14.523Z,25.50
2017-06-06T13:56:47.547Z,25.80
2017-06-06T13:59:20.583Z,25.90
2017-06-06T14:01:53.621Z,26.20
2017-06-06T14:04:26.312Z,26.30
2017-06-06T14:06:59.387Z,22.20
2017-06-06T14:09:32.159Z,21.30
2017-06-06T14:12:04.369Z,22.50
2017-06-06T14:14:37.379Z,24.30
2017-06-06T14:17:09.920Z,27.30
2017-06-06T14:19:43.411Z,30.80
2017-06-06T14:22:16.056Z,31.00
2017-06-06T14:24:48.797Z,33.50
2017-06-06T14:27:21.447Z,33.60
2017-06-06T14:29:53.944Z,31.60
2017-06-06T14:32:26.496Z,28.50
2017-06-06T14:34:59.459Z,25.70
2017-06-06T14:37:32.147Z,28.00
2017-06-06T14:40:04.987Z,27.00
2017-06-06T14:42:37.979Z,31.10
2017-06-06T14:45:11.836Z,30.90
2017-06-06T14:47:44.808Z,31.80
2017-06-06T14:50:17.903Z,25.80
2017-06-06T14:52:50.891Z,23.30
2017-06-06T14:55:23.851Z,23.70
2017-06-06T14:57:53.987Z,23.60
2017-06-06T15:00:26.691Z,25.40
2017-06-06T15:02:59.719Z,27.30
2017-06-06T15:05:32.850Z,27.70
2017-06-06T15:08:05.784Z,35.00
2017-06-06T15:10:38.516Z,29.80
2017-06-06T15:13:11.415Z,30.80
2017-06-06T15:15:44.148Z,31.80
2017-06-06T15:18:16.785Z,29.50
2017-06-06T15:20:49.596Z,28.60
2017-06-06T15:23:22.447Z,27.00
2017-06-06T15:25:55.451Z,27.30
2017-06-06T15:28:28.117Z,32.70
2017-06-06T15:31:00.739Z,28.40
2017-06-06T15:33:33.563Z,31.30
2017-06-06T15:36:06.095Z,28.00
2017-06-06T15:38:38.831Z,28.70
2017-06-06T15:41:11.408Z,31.70
2017-06-06T15:43:44.163Z,29.80
2017-06-06T15:46:16.751Z,27.80
2017-06-06T15:48:49.559Z,28.40
2017-06-06T15:51:22.416Z,27.80
2017-06-06T15:53:55.306Z,29.40
2017-06-06T15:56:28.156Z,29.00
2017-06-06T15:59:01.230Z,33.20
2017-06-06T16:01:34.148Z,37.20
2017-06-06T16:04:07.223Z,40.90
2017-06-06T16:06:41.020Z,44.00
2017-06-06T16:09:14.089Z,47.50
2017-06-06T16:11:47.079Z,49.70
2017-06-06T16:14:19.988Z,53.20
2017-06-06T16:16:52.187Z,56.10
2017-06-06T16:19:25.192Z,59.00
2017-06-06T16:21:58.211Z,62.40
2017-06-06T16:24:31.067Z,64.90
2017-06-06T16:27:04.118Z,66.90
2017-06-06T16:29:37.152Z,67.30
2017-06-06T16:32:33.255Z,69.20
2017-06-06T16:35:00.302Z,73.90
2017-06-06T16:37:27.391Z,71.70
2017-06-06T16:39:53.719Z,71.50
2017-06-06T16:42:20.927Z,71.90
2017-06-06T16:44:47.191Z,71.90
2017-06-06T16:47:14.251Z,69.30
2017-06-06T16:49:40.553Z,68.70
2017-06-06T16:52:07.551Z,63.50
2017-06-06T16:54:33.851Z,63.60
2017-06-06T16:57:00.171Z,66.40
2017-06-06T16:59:26.442Z,64.40
2017-06-06T17:01:52.810Z,64.70
2017-06-06T17:04:19.107Z,64.80
2017-06-06T17:06:45.400Z,64.60
2017-06-06T17:09:11.679Z,66.20
2017-06-06T17:11:38.812Z,68.50
2017-06-06T17:14:05.827Z,70.70
2017-06-06T17:16:32.111Z,69.80
2017-06-06T17:18:58.419Z,70.50
2017-06-06T17:21:24.685Z,69.10
2017-06-06T17:23:50.970Z,69.00
2017-06-06T17:26:17.293Z,69.20
2017-06-06T17:28:43.768Z,67.60
2017-06-06T17:31:10.065Z,67.60
2017-06-06T17:33:36.399Z,67.50
2017-06-06T17:36:02.799Z,61.40
2017-06-06T17:38:29.339Z,63.10
2017-06-06T17:40:55.775Z,60.80
2017-06-06T17:43:22.219Z,60.50
2017-06-06T17:45:48.565Z,63.00
2017-06-06T17:48:15.408Z,63.00
2017-06-06T17:50:42.300Z,65.40
2017-06-06T17:53:09.068Z,65.20
2017-06-06T17:55:36.138Z,65.20
2017-06-06T17:58:02.836Z,66.00
2017-06-06T18:00:29.276Z,63.70
2017-06-06T18:02:56.921Z,65.50
2017-06-06T18:05:23.502Z,66.30
2017-06-06T18:07:50.376Z,65.20
2017-06-06T18:10:17.262Z,62.90
2017-06-06T18:12:44.274Z,63.90
2017-06-06T18:15:11.428Z,61.50
2017-06-06T18:17:38.532Z,63.20
2017-06-06T18:20:06.106Z,61.10
2017-06-06T18:22:33.226Z,59.80
2017-06-06T18:25:00.736Z,61.40
2017-06-06T18:27:27.951Z,61.70
2017-06-06T18:29:55.617Z,58.80
2017-06-06T18:32:23.237Z,59.20
2017-06-06T18:34:50.975Z,59.70
2017-06-06T18:37:18.720Z,60.70
2017-06-06T18:39:46.630Z,62.10
2017-06-06T18:42:15.159Z,61.20
2017-06-06T18:44:42.871Z,61.00
2017-06-06T18:47:11.654Z,57.60
2017-06-06T18:49:39.414Z,57.90
2017-06-06T18:52:07.200Z,57.60
2017-06-06T18:54:36.246Z,58.00
2017-06-06T18:57:04.753Z,55.30
2017-06-06T18:59:33.835Z,55.10
2017-06-06T19:02:03.503Z,54.50
2017-06-06T19:04:31.635Z,54.50
2017-06-06T19:06:59.416Z,54.00
2017-06-06T19:09:28.369Z,54.40
2017-06-06T19:11:56.246Z,55.50
2017-06-06T19:14:24.015Z,55.30
2017-06-06T19:16:52.143Z,55.30
2017-06-06T19:19:19.998Z,55.80
2017-06-06T19:21:48.012Z,55.40
2017-06-06T19:24:15.969Z,56.70
2017-06-06T19:26:45.036Z,55.70
2017-06-06T19:29:13.652Z,56.80
2017-06-06T19:31:43.152Z,56.60
2017-06-06T19:34:12.255Z,56.60
2017-06-06T19:36:41.661Z,56.80
2017-06-06T19:39:10.569Z,56.50
2017-06-06T19:41:41.477Z,56.90
2017-06-06T19:44:10.381Z,56.90
2017-06-06T19:46:38.225Z,56.10
2017-06-06T19:49:06.035Z,55.60
2017-06-06T19:51:34.426Z,56.30
2017-06-06T19:54:02.257Z,55.30
2017-06-06T19:56:30.313Z,57.80
2017-06-06T19:58:58.456Z,57.90
2017-06-06T20:01:26.231Z,57.90
2017-06-06T20:03:54.012Z,58.10
2017-06-06T20:06:22.016Z,58.20
2017-06-06T20:08:49.833Z,57.80
2017-06-06T20:11:17.709Z,58.00
2017-06-06T20:13:46.503Z,59.00
2017-06-06T20:16:14.302Z,59.10
2017-06-06T20:18:42.886Z,59.30
2017-06-06T20:21:11.319Z,59.30
2017-06-06T20:23:39.396Z,59.60
2017-06-06T20:26:07.181Z,59.30
2017-06-06T20:28:35.175Z,58.20
2017-06-06T20:31:03.097Z,58.80
2017-06-06T20:33:30.964Z,58.20
2017-06-06T20:35:59.002Z,59.10
2017-06-06T20:38:26.788Z,60.40
2017-06-06T20:40:54.537Z,59.10
2017-06-06T20:43:22.580Z,59.40
2017-06-06T20:45:51.234Z,59.30
2017-06-06T20:48:18.956Z,59.10
2017-06-06T20:50:47.827Z,60.40
2017-06-06T20:53:16.789Z,60.40
2017-06-06T20:55:45.662Z,59.80
2017-06-06T20:58:14.774Z,60.90
2017-06-06T21:00:43.428Z,60.50
2017-06-06T21:03:12.615Z,60.50
2017-06-06T21:05:41.397Z,60.60
2017-06-06T21:08:09.447Z,61.80
2017-06-06T21:10:38.180Z,60.20
2017-06-06T21:13:06.797Z,61.10
2017-06-06T21:15:33.844Z,58.90
2017-06-06T21:18:00.575Z,59.20
2017-06-06T21:20:27.226Z,59.00
2017-06-06T21:22:54.738Z,59.00
2017-06-06T21:25:21.130Z,59.00
2017-06-06T21:27:47.651Z,60.60
2017-06-06T21:30:13.937Z,58.60
2017-06-06T21:32:40.238Z,59.20
2017-06-06T21:35:06.551Z,58.80
2017-06-06T21:37:32.825Z,59.60
2017-06-06T21:39:59.091Z,58.60
2017-06-06T21:42:25.412Z,60.20
2017-06-06T21:44:51.668Z,61.10
2017-06-06T21:47:17.959Z,58.60
2017-06-06T21:49:44.374Z,60.00
2017-06-06T21:52:10.647Z,58.90
2017-06-06T21:54:36.955Z,59.00
2017-06-06T21:57:03.303Z,59.70
2017-06-06T21:59:29.582Z,59.00
2017-06-06T22:01:55.894Z,59.70
2017-06-06T22:04:22.942Z,59.60
2017-06-06T22:06:49.942Z,61.40
2017-06-06T22:09:16.223Z,61.40
2017-06-06T22:11:42.526Z,60.60
2017-06-06T22:14:08.809Z,60.60
2017-06-06T22:16:35.079Z,61.00
2017-06-06T22:19:01.375Z,60.40
2017-06-06T22:21:27.675Z,61.20
2017-06-06T22:23:53.972Z,62.10
2017-06-06T22:26:20.548Z,63.00
2017-06-06T22:28:48.173Z,62.10
2017-06-06T22:31:14.475Z,62.00
2017-06-06T22:33:42.395Z,62.10
2017-06-06T22:36:09.703Z,61.10
2017-06-06T22:38:36.480Z,60.10
2017-06-06T22:41:03.579Z,60.10
2017-06-06T22:43:29.983Z,59.40
2017-06-06T22:45:56.235Z,59.60
2017-06-06T22:48:22.544Z,60.10
2017-06-06T22:50:48.819Z,60.30
2017-06-06T22:53:15.091Z,60.90
2017-06-06T22:55:41.402Z,60.80
2017-06-06T22:58:07.674Z,62.80
2017-06-06T23:00:34.686Z,61.80
2017-06-06T23:03:01.755Z,61.20
2017-06-06T23:05:28.026Z,61.10
2017-06-06T23:07:54.311Z,61.70
2017-06-06T23:10:20.637Z,61.30
2017-06-06T23:12:46.919Z,62.30
2017-06-06T23:15:13.183Z,62.50
2017-06-06T23:17:40.242Z,63.10
2017-06-06T23:20:07.271Z,62.40
2017-06-06T23:22:34.279Z,61.00
2017-06-06T23:25:00.591Z,61.00
2017-06-06T23:27:26.854Z,61.70
2017-06-06T23:29:53.119Z,63.20
2017-06-06T23:32:20.174Z,63.30
2017-06-06T23:34:47.207Z,62.60
2017-06-06T23:37:14.195Z,62.20
2017-06-06T23:39:40.506Z,62.20
2017-06-06T23:42:06.767Z,62.20
2017-06-06T23:44:33.775Z,61.90
2017-06-06T23:47:00.826Z,62.10
2017-06-06T23:49:27.094Z,62.10
2017-06-06T23:52:00.359Z,61.40
2017-06-06T23:54:26.663Z,62.20
2017-06-06T23:56:52.939Z,62.90
2017-06-06T23:59:19.987Z,63.90
